Time;durP1;ratioP1;P1;durP2;ratioP2;P2;SDS_P1;SDS_P2;PMS_P1;PMS_P2;Temp;Humidity;BMP_temperature;BMP_pressure;BME280_temperature;BME280_humidity;BME280_pressure;Samples;Min_cycle;Max_cycle;Signal;HPM_P1;HPM_P2
2021/07/30 00:09:28;;;;;;;9.20;7.25;;;;;;;;;;5154739;27;20039;-82
2021/07/30 00:11:54;;;;;;;14.95;5.80;;;;;;;;;;5157742;27;20034;-81
2021/07/30 00:14:20;;;;;;;9.65;6.95;;;;;;;;;;5158665;27;20022;-82
2021/07/30 00:16:45;;;;;;;7.15;4.47;;;;;;;;;;5158519;27;20383;-81
2021/07/30 00:19:11;;;;;;;12.90;6.95;;;;;;;;;;5158925;27;20106;-81
2021/07/30 00:21:36;;;;;;;8.00;5.10;;;;;;;;;;5158494;27;20014;-81
2021/07/30 00:24:03;;;;;;;10.57;7.60;;;;;;;;;;5158454;27;20105;-81
2021/07/30 00:26:29;;;;;;;8.02;6.32;;;;;;;;;;5158442;27;20015;-81
2021/07/30 00:28:54;;;;;;;7.72;5.13;;;;;;;;;;5158387;27;20044;-81
2021/07/30 00:31:20;;;;;;;18.17;7.38;;;;;;;;;;5158298;27;20463;-81
2021/07/30 00:33:45;;;;;;;29.77;7.55;;;;;;;;;;5158459;27;20105;-81
2021/07/30 00:36:11;;;;;;;8.15;6.20;;;;;;;;;;5158424;27;20027;-82
2021/07/30 00:38:36;;;;;;;9.23;6.93;;;;;;;;;;5158555;27;20406;-81
2021/07/30 00:41:02;;;;;;;9.60;6.60;;;;;;;;;;5158119;27;20026;-81
2021/07/30 00:43:28;;;;;;;8.32;5.68;;;;;;;;;;5158045;27;20026;-81
2021/07/30 00:45:55;;;;;;;11.38;5.90;;;;;;;;;;5158044;27;20018;-81
2021/07/30 00:48:21;;;;;;;8.98;4.78;;;;;;;;;;5158249;27;20023;-81
2021/07/30 00:50:47;;;;;;;8.85;6.78;;;;;;;;;;5158265;27;20507;-81
2021/07/30 00:53:14;;;;;;;8.93;6.10;;;;;;;;;;5139320;27;20027;-81
2021/07/30 00:55:41;;;;;;;10.68;7.82;;;;;;;;;;5157830;27;20522;-81
2021/07/30 00:58:07;;;;;;;7.80;6.47;;;;;;;;;;5139254;27;20027;-82
2021/07/30 01:00:33;;;;;;;9.10;6.35;;;;;;;;;;5157844;27;20022;-81
2021/07/30 01:03:00;;;;;;;9.82;6.90;;;;;;;;;;5157840;27;20025;-81
2021/07/30 01:05:29;;;;;;;13.15;5.72;;;;;;;;;;5157995;27;20102;-81
2021/07/30 01:07:54;;;;;;;8.15;5.22;;;;;;;;;;5157722;27;20106;-81
2021/07/30 01:10:20;;;;;;;6.97;5.10;;;;;;;;;;5157917;27;20043;-81
2021/07/30 01:12:46;;;;;;;11.70;6.95;;;;;;;;;;5138902;27;20031;-81
2021/07/30 01:15:12;;;;;;;12.18;6.68;;;;;;;;;;5158085;27;20040;-81
2021/07/30 01:17:37;;;;;;;9.00;6.43;;;;;;;;;;5157235;27;20418;-81
2021/07/30 01:20:03;;;;;;;7.38;4.35;;;;;;;;;;5157419;27;20430;-81
2021/07/30 01:22:36;;;;;;;8.60;5.97;;;;;;;;;;5156961;27;20023;-81
2021/07/30 01:25:02;;;;;;;9.43;6.68;;;;;;;;;;5138949;27;20486;-81
2021/07/30 01:27:27;;;;;;;9.57;6.45;;;;;;;;;;5157915;27;20026;-81
2021/07/30 01:29:53;;;;;;;7.97;6.50;;;;;;;;;;5157144;27;20043;-81
2021/07/30 01:32:19;;;;;;;9.98;7.05;;;;;;;;;;5157047;27;20110;-81
2021/07/30 01:34:45;;;;;;;7.88;6.32;;;;;;;;;;5157102;27;20031;-81
2021/07/30 01:37:12;;;;;;;9.65;6.53;;;;;;;;;;5157129;27;20054;-81
2021/07/30 01:39:38;;;;;;;8.25;7.45;;;;;;;;;;5157056;27;20141;-81
2021/07/30 01:42:05;;;;;;;9.82;7.20;;;;;;;;;;5138469;27;20034;-81
2021/07/30 01:44:31;;;;;;;10.90;4.07;;;;;;;;;;5138608;27;20042;-81
2021/07/30 01:46:56;;;;;;;8.85;6.18;;;;;;;;;;5156882;27;20015;-81
2021/07/30 01:49:22;;;;;;;9.77;7.43;;;;;;;;;;5156801;27;20106;-81
2021/07/30 01:51:48;;;;;;;9.13;6.55;;;;;;;;;;5156785;27;20023;-81
2021/07/30 01:54:14;;;;;;;8.25;5.13;;;;;;;;;;5156730;27;20037;-81
2021/07/30 01:56:42;;;;;;;9.27;6.50;;;;;;;;;;5156655;27;20019;-81
2021/07/30 01:59:09;;;;;;;12.02;6.70;;;;;;;;;;5156617;27;20030;-81
2021/07/30 02:01:34;;;;;;;8.75;5.38;;;;;;;;;;5156813;27;20022;-81
2021/07/30 02:04:00;;;;;;;8.90;4.75;;;;;;;;;;5156590;27;20435;-81
2021/07/30 02:06:26;;;;;;;9.60;7.00;;;;;;;;;;5156496;27;20018;-81
2021/07/30 02:08:52;;;;;;;7.90;4.55;;;;;;;;;;5156449;27;20436;-81
2021/07/30 02:11:17;;;;;;;9.43;7.28;;;;;;;;;;5156212;27;20026;-81
2021/07/30 02:16:27;;;;;;;8.18;4.75;;;;;;;;;;5156279;27;20423;-81
2021/07/30 02:18:53;;;;;;;13.00;8.43;;;;;;;;;;5156449;27;20109;-81
2021/07/30 02:21:23;;;;;;;7.78;6.97;;;;;;;;;;5156418;27;20466;-81
2021/07/30 02:23:49;;;;;;;10.15;6.35;;;;;;;;;;5156432;27;20503;-81
2021/07/30 02:26:15;;;;;;;8.90;7.13;;;;;;;;;;5156099;27;20026;-81
2021/07/30 02:28:40;;;;;;;15.30;10.07;;;;;;;;;;5137580;27;20022;-81
2021/07/30 02:31:06;;;;;;;10.00;7.45;;;;;;;;;;5156002;27;20030;-81
2021/07/30 02:33:31;;;;;;;9.57;6.95;;;;;;;;;;5155352;27;20110;-83
2021/07/30 02:35:57;;;;;;;9.32;6.30;;;;;;;;;;5156290;27;20019;-82
2021/07/30 02:38:23;;;;;;;13.43;7.78;;;;;;;;;;5156160;27;20074;-81
2021/07/30 02:40:48;;;;;;;8.95;5.82;;;;;;;;;;5137288;27;20462;-84
2021/07/30 02:43:14;;;;;;;16.92;7.53;;;;;;;;;;5155928;27;20378;-82
2021/07/30 02:45:40;;;;;;;9.70;5.35;;;;;;;;;;5155696;27;20356;-82
2021/07/30 02:48:06;;;;;;;10.40;8.68;;;;;;;;;;5155777;27;20029;-82
2021/07/30 02:50:31;;;;;;;9.48;8.18;;;;;;;;;;5155736;27;20034;-82
2021/07/30 02:52:57;;;;;;;13.68;7.85;;;;;;;;;;5155570;27;20030;-81
2021/07/30 02:55:22;;;;;;;9.02;8.02;;;;;;;;;;5155592;27;20022;-81
2021/07/30 02:57:48;;;;;;;12.75;8.32;;;;;;;;;;5155726;27;20022;-86
2021/07/30 03:00:14;;;;;;;11.15;9.27;;;;;;;;;;5155617;27;20067;-83
2021/07/30 03:02:39;;;;;;;11.10;7.78;;;;;;;;;;5155773;27;20109;-83
2021/07/30 03:05:06;;;;;;;12.35;6.30;;;;;;;;;;5136992;27;20534;-81
2021/07/30 03:07:31;;;;;;;9.82;7.38;;;;;;;;;;5155397;27;20045;-81
2021/07/30 03:09:57;;;;;;;10.10;8.38;;;;;;;;;;5155423;27;20473;-84
2021/07/30 03:12:23;;;;;;;9.13;7.18;;;;;;;;;;5155325;27;20030;-82
2021/07/30 03:14:49;;;;;;;9.80;7.43;;;;;;;;;;5136811;27;20466;-81
2021/07/30 03:17:14;;;;;;;10.48;7.80;;;;;;;;;;5155334;27;20054;-83
2021/07/30 03:19:40;;;;;;;10.93;5.55;;;;;;;;;;5155427;27;20427;-80
2021/07/30 03:22:05;;;;;;;8.80;7.43;;;;;;;;;;5155349;27;20027;-81
2021/07/30 03:24:31;;;;;;;9.70;8.10;;;;;;;;;;5155512;27;20067;-81
2021/07/30 03:26:58;;;;;;;8.23;6.50;;;;;;;;;;5155260;27;20031;-81
2021/07/30 03:29:23;;;;;;;14.70;8.43;;;;;;;;;;5155470;27;20474;-82
2021/07/30 03:31:49;;;;;;;8.80;6.55;;;;;;;;;;5136520;27;20033;-82
2021/07/30 03:34:15;;;;;;;14.45;7.18;;;;;;;;;;5155224;27;20022;-82
2021/07/30 03:36:41;;;;;;;11.23;7.90;;;;;;;;;;5155230;27;20027;-82
2021/07/30 03:39:08;;;;;;;12.93;9.05;;;;;;;;;;5155036;27;20072;-82
2021/07/30 03:41:34;;;;;;;11.45;7.95;;;;;;;;;;5155594;27;20030;-81
2021/07/30 03:43:59;;;;;;;10.25;7.32;;;;;;;;;;5154983;27;20026;-81
2021/07/30 03:46:25;;;;;;;14.45;7.43;;;;;;;;;;5140618;27;20022;-81
2021/07/30 03:48:50;;;;;;;11.23;8.00;;;;;;;;;;5159464;27;20030;-81
2021/07/30 03:51:16;;;;;;;10.38;7.03;;;;;;;;;;5159644;27;20115;-81
2021/07/30 03:53:42;;;;;;;16.80;8.48;;;;;;;;;;5123351;27;20075;-81
2021/07/30 03:56:14;;;;;;;15.27;7.57;;;;;;;;;;5140442;27;20034;-82
2021/07/30 03:58:45;;;;;;;11.45;6.90;;;;;;;;;;5147682;27;20023;-81
2021/07/30 04:01:11;;;;;;;11.95;7.53;;;;;;;;;;5143911;27;20023;-82
2021/07/30 04:03:38;;;;;;;9.65;7.38;;;;;;;;;;5159278;27;20019;-83
2021/07/30 04:06:04;;;;;;;14.52;7.90;;;;;;;;;;5158116;27;20111;-81
2021/07/30 04:08:32;;;;;;;8.55;6.88;;;;;;;;;;5140419;27;20026;-81
2021/07/30 04:10:58;;;;;;;6.20;5.40;;;;;;;;;;5158964;27;20019;-81
2021/07/30 04:13:24;;;;;;;11.27;7.15;;;;;;;;;;5140908;27;20031;-81
2021/07/30 04:15:50;;;;;;;12.38;7.57;;;;;;;;;;5158665;27;20030;-81
2021/07/30 04:18:16;;;;;;;8.38;5.78;;;;;;;;;;5158435;27;20050;-80
2021/07/30 04:20:41;;;;;;;8.88;5.72;;;;;;;;;;5158635;27;20456;-81
2021/07/30 04:23:07;;;;;;;11.10;5.50;;;;;;;;;;5139954;27;20114;-81
2021/07/30 04:25:33;;;;;;;10.63;6.03;;;;;;;;;;5158519;27;20053;-81
2021/07/30 04:27:58;;;;;;;10.05;3.88;;;;;;;;;;5158327;27;20419;-81
2021/07/30 04:30:24;;;;;;;9.55;7.82;;;;;;;;;;5158351;27;20026;-83
2021/07/30 04:32:51;;;;;;;13.00;6.60;;;;;;;;;;5158573;27;20029;-81
2021/07/30 04:35:16;;;;;;;10.02;7.35;;;;;;;;;;5158273;27;20110;-81
2021/07/30 04:37:42;;;;;;;10.00;6.80;;;;;;;;;;5158174;27;20060;-81
2021/07/30 04:40:08;;;;;;;10.02;7.97;;;;;;;;;;5139695;27;20027;-80
2021/07/30 04:42:34;;;;;;;12.63;7.05;;;;;;;;;;5158283;27;20023;-81
2021/07/30 04:44:59;;;;;;;8.65;7.68;;;;;;;;;;5139453;27;20022;-81
2021/07/30 04:47:25;;;;;;;10.77;6.38;;;;;;;;;;5139483;27;20058;-81
2021/07/30 04:49:51;;;;;;;9.48;7.00;;;;;;;;;;5158042;27;20015;-81
2021/07/30 04:52:16;;;;;;;11.93;7.45;;;;;;;;;;5139251;27;20390;-81
2021/07/30 04:54:42;;;;;;;8.82;7.00;;;;;;;;;;5158563;27;20030;-81
2021/07/30 04:57:09;;;;;;;8.88;4.45;;;;;;;;;;5138635;27;20072;-81
2021/07/30 04:59:34;;;;;;;8.65;7.35;;;;;;;;;;5157844;27;20050;-81
2021/07/30 05:02:00;;;;;;;13.25;7.43;;;;;;;;;;5157814;27;20083;-80
2021/07/30 05:04:26;;;;;;;13.30;6.80;;;;;;;;;;5157718;27;20031;-81
2021/07/30 05:06:51;;;;;;;10.15;7.25;;;;;;;;;;5157732;27;20034;-82
2021/07/30 05:09:17;;;;;;;13.20;7.40;;;;;;;;;;5157842;27;20058;-82
2021/07/30 05:11:43;;;;;;;9.77;7.47;;;;;;;;;;5157599;27;20062;-81
2021/07/30 05:14:09;;;;;;;10.30;6.85;;;;;;;;;;5139057;27;20113;-81
2021/07/30 05:16:34;;;;;;;11.80;6.75;;;;;;;;;;5157656;27;20046;-80
2021/07/30 05:19:00;;;;;;;8.63;6.38;;;;;;;;;;5158152;27;20018;-81
2021/07/30 05:21:26;;;;;;;8.25;5.70;;;;;;;;;;5157691;27;20057;-82
2021/07/30 05:23:53;;;;;;;7.93;4.30;;;;;;;;;;5157350;27;20027;-84
2021/07/30 05:26:18;;;;;;;7.38;6.57;;;;;;;;;;5157223;27;20023;-81
2021/07/30 05:28:44;;;;;;;9.90;4.35;;;;;;;;;;5157538;27;20079;-82
2021/07/30 05:31:17;;;;;;;10.05;7.18;;;;;;;;;;5157364;27;20023;-83
2021/07/30 05:33:44;;;;;;;8.73;5.97;;;;;;;;;;5157132;27;20037;-82
2021/07/30 05:36:20;;;;;;;9.95;5.65;;;;;;;;;;5157148;27;20018;-82
2021/07/30 05:38:47;;;;;;;12.15;6.97;;;;;;;;;;5154320;27;20466;-81
2021/07/30 05:41:14;;;;;;;9.68;6.95;;;;;;;;;;5129151;27;20026;-81
2021/07/30 05:43:41;;;;;;;13.32;4.70;;;;;;;;;;5146739;27;20023;-82
2021/07/30 05:46:07;;;;;;;9.95;6.03;;;;;;;;;;5157015;27;20026;-81
2021/07/30 05:48:34;;;;;;;5.97;3.47;;;;;;;;;;5157138;27;20474;-82
2021/07/30 05:50:59;;;;;;;10.43;6.20;;;;;;;;;;5156870;27;20029;-81
2021/07/30 05:53:25;;;;;;;10.13;5.72;;;;;;;;;;5156888;27;20027;-81
2021/07/30 05:55:51;;;;;;;10.68;3.95;;;;;;;;;;5157220;27;20030;-80
2021/07/30 05:58:17;;;;;;;10.82;6.88;;;;;;;;;;5156830;27;20019;-81
2021/07/30 06:00:42;;;;;;;9.73;5.32;;;;;;;;;;5156972;27;20023;-81
2021/07/30 06:03:08;;;;;;;8.98;4.85;;;;;;;;;;5157926;27;20561;-80
2021/07/30 06:05:34;;;;;;;13.02;6.32;;;;;;;;;;5156572;27;20026;-80
2021/07/30 06:08:04;;;;;;;14.35;3.92;;;;;;;;;;5155502;27;20023;-80
2021/07/30 06:10:30;;;;;;;7.03;4.07;;;;;;;;;;5156382;27;20029;-81
2021/07/30 06:12:55;;;;;;;12.32;4.47;;;;;;;;;;5137767;27;20415;-80
2021/07/30 06:15:23;;;;;;;10.75;4.72;;;;;;;;;;5156344;27;20023;-80
2021/07/30 06:17:49;;;;;;;10.20;5.85;;;;;;;;;;5156081;27;20035;-82
2021/07/30 06:20:15;;;;;;;12.57;6.47;;;;;;;;;;5156538;27;20026;-80
2021/07/30 06:22:41;;;;;;;8.63;5.15;;;;;;;;;;5156260;27;20105;-81
2021/07/30 06:25:07;;;;;;;12.35;7.10;;;;;;;;;;5156181;27;20097;-80
2021/07/30 06:27:36;;;;;;;10.55;7.32;;;;;;;;;;5156161;27;20598;-80
2021/07/30 06:30:03;;;;;;;5.85;3.63;;;;;;;;;;5137685;27;20220;-80
2021/07/30 06:32:30;;;;;;;10.82;4.95;;;;;;;;;;5155943;27;20030;-83
2021/07/30 06:34:56;;;;;;;6.53;4.32;;;;;;;;;;5137455;27;20023;-82
2021/07/30 06:37:21;;;;;;;11.68;4.75;;;;;;;;;;5155908;27;20087;-80
2021/07/30 06:39:47;;;;;;;9.00;4.85;;;;;;;;;;5155853;27;20101;-80
2021/07/30 06:42:13;;;;;;;9.35;7.20;;;;;;;;;;5155718;27;20025;-80
2021/07/30 06:44:39;;;;;;;10.93;6.15;;;;;;;;;;5137375;27;20019;-81
2021/07/30 06:47:05;;;;;;;9.25;4.18;;;;;;;;;;5155746;27;20347;-80
2021/07/30 06:49:30;;;;;;;10.35;5.47;;;;;;;;;;5155701;27;20026;-80
2021/07/30 06:51:56;;;;;;;11.85;4.25;;;;;;;;;;5155839;27;20102;-80
2021/07/30 06:54:23;;;;;;;9.82;5.63;;;;;;;;;;5155586;27;20037;-80
2021/07/30 06:56:49;;;;;;;11.10;4.38;;;;;;;;;;5155875;27;20102;-89
2021/07/30 06:59:15;;;;;;;9.55;6.30;;;;;;;;;;5156341;27;20103;-80
2021/07/30 07:01:40;;;;;;;10.07;5.78;;;;;;;;;;5155632;27;20026;-80
2021/07/30 07:04:06;;;;;;;13.30;5.32;;;;;;;;;;5155765;27;20378;-82
2021/07/30 07:06:32;;;;;;;10.63;3.50;;;;;;;;;;5155427;27;20374;-81
2021/07/30 07:08:57;;;;;;;14.23;5.28;;;;;;;;;;5155316;27;20106;-80
2021/07/30 07:11:23;;;;;;;8.65;7.07;;;;;;;;;;5155279;27;20019;-80
2021/07/30 07:13:48;;;;;;;8.43;7.55;;;;;;;;;;5153030;27;20120;-82
2021/07/30 07:16:22;;;;;;;7.93;4.28;;;;;;;;;;5127923;27;20027;-80
2021/07/30 07:18:48;;;;;;;8.30;4.70;;;;;;;;;;5134988;27;20019;-82
2021/07/30 07:21:14;;;;;;;8.05;6.15;;;;;;;;;;5116354;28;20054;-81
2021/07/30 07:23:43;;;;;;;12.50;7.03;;;;;;;;;;5135103;27;20382;-81
2021/07/30 07:26:09;;;;;;;9.85;6.28;;;;;;;;;;5135227;28;20061;-81
2021/07/30 07:28:35;;;;;;;12.27;5.45;;;;;;;;;;5135266;28;20027;-82
2021/07/30 07:31:00;;;;;;;9.15;4.88;;;;;;;;;;5134487;28;20027;-84
2021/07/30 07:33:26;;;;;;;10.30;4.88;;;;;;;;;;5117345;28;20037;-80
2021/07/30 07:35:53;;;;;;;11.98;5.20;;;;;;;;;;5135168;28;20027;-80
2021/07/30 07:38:19;;;;;;;16.27;8.63;;;;;;;;;;5135533;28;20023;-82
2021/07/30 07:40:48;;;;;;;8.38;3.97;;;;;;;;;;5136466;28;20048;-80
2021/07/30 07:43:14;;;;;;;10.88;6.10;;;;;;;;;;5136626;28;20106;-82
2021/07/30 07:45:41;;;;;;;10.23;6.40;;;;;;;;;;5135318;28;20030;-81
2021/07/30 07:48:07;;;;;;;10.77;6.38;;;;;;;;;;5134648;28;20106;-82
2021/07/30 07:50:33;;;;;;;6.97;4.50;;;;;;;;;;5135179;28;20059;-84
2021/07/30 07:52:58;;;;;;;8.65;4.03;;;;;;;;;;5136274;28;20106;-84
2021/07/30 07:55:24;;;;;;;8.40;6.05;;;;;;;;;;5116016;28;20027;-83
2021/07/30 07:57:50;;;;;;;12.70;6.57;;;;;;;;;;5117005;28;20453;-82
2021/07/30 08:00:15;;;;;;;9.43;5.20;;;;;;;;;;5134737;27;20102;-83
2021/07/30 08:02:41;;;;;;;10.45;5.93;;;;;;;;;;5153045;27;20385;-82
2021/07/30 08:05:08;;;;;;;7.60;4.13;;;;;;;;;;5155290;27;20071;-82
2021/07/30 08:07:34;;;;;;;10.18;5.10;;;;;;;;;;5155118;27;20022;-82
2021/07/30 08:09:59;;;;;;;11.60;5.38;;;;;;;;;;5157362;27;20051;-82
2021/07/30 08:12:25;;;;;;;7.38;3.35;;;;;;;;;;5156865;27;20047;-82
2021/07/30 08:14:51;;;;;;;11.70;7.50;;;;;;;;;;5157450;27;20015;-82
2021/07/30 08:17:16;;;;;;;9.15;5.70;;;;;;;;;;5161036;27;20039;-82
2021/07/30 08:19:43;;;;;;;7.32;4.75;;;;;;;;;;5135381;27;20120;-81
2021/07/30 08:22:09;;;;;;;10.65;3.50;;;;;;;;;;5136770;27;20047;-81
2021/07/30 08:24:34;;;;;;;15.18;6.07;;;;;;;;;;5157337;27;20022;-81
2021/07/30 08:27:06;;;;;;;11.68;4.03;;;;;;;;;;5157278;27;20134;-81
2021/07/30 08:29:32;;;;;;;7.70;4.28;;;;;;;;;;5156670;27;20022;-81
2021/07/30 08:31:58;;;;;;;10.50;4.18;;;;;;;;;;5138991;27;20466;-81
2021/07/30 08:34:24;;;;;;;7.82;3.85;;;;;;;;;;5159143;27;20026;-81
2021/07/30 08:36:50;;;;;;;10.95;4.32;;;;;;;;;;5161235;27;20027;-82
2021/07/30 08:39:16;;;;;;;7.65;3.97;;;;;;;;;;5159997;27;20062;-82
2021/07/30 08:41:44;;;;;;;8.55;4.53;;;;;;;;;;5158205;27;20034;-83
2021/07/30 08:44:10;;;;;;;10.50;4.38;;;;;;;;;;5158119;27;20023;-82
2021/07/30 08:46:35;;;;;;;12.23;5.05;;;;;;;;;;5139292;27;20486;-82
2021/07/30 08:49:02;;;;;;;13.25;7.88;;;;;;;;;;5118904;27;20034;-82
2021/07/30 08:51:32;;;;;;;12.27;7.32;;;;;;;;;;5137228;27;20055;-83
2021/07/30 08:53:58;;;;;;;11.32;5.15;;;;;;;;;;5137335;27;20015;-82
2021/07/30 08:56:24;;;;;;;13.45;6.60;;;;;;;;;;5118750;27;20114;-82
2021/07/30 08:58:52;;;;;;;10.82;4.72;;;;;;;;;;5139680;27;20027;-81
2021/07/30 09:01:18;;;;;;;8.35;3.92;;;;;;;;;;5144684;27;20042;-82
2021/07/30 09:03:47;;;;;;;13.27;5.10;;;;;;;;;;5147732;27;20466;-86
2021/07/30 09:06:23;;;;;;;12.07;4.32;;;;;;;;;;5139535;27;20054;-83
2021/07/30 09:09:01;;;;;;;11.50;4.88;;;;;;;;;;5137437;27;20019;-81
2021/07/30 09:11:28;;;;;;;10.27;4.25;;;;;;;;;;5136954;27;20031;-82
2021/07/30 09:13:54;;;;;;;7.70;3.75;;;;;;;;;;5137673;27;20015;-81
2021/07/30 09:16:20;;;;;;;9.88;4.25;;;;;;;;;;5137384;27;20467;-82
2021/07/30 09:18:45;;;;;;;13.77;5.35;;;;;;;;;;5137553;27;20052;-82
2021/07/30 09:21:17;;;;;;;11.10;4.35;;;;;;;;;;5137428;27;20192;-81
2021/07/30 09:23:54;;;;;;;10.90;3.95;;;;;;;;;;5137163;27;20031;-82
2021/07/30 09:26:40;;;;;;;9.57;3.88;;;;;;;;;;5137285;27;20051;-82
2021/07/30 09:29:08;;;;;;;11.05;3.58;;;;;;;;;;5118701;27;20080;-83
2021/07/30 09:31:40;;;;;;;11.20;3.30;;;;;;;;;;5136842;27;20075;-81
2021/07/30 09:34:16;;;;;;;14.48;4.20;;;;;;;;;;5137441;27;20023;-82
2021/07/30 09:36:47;;;;;;;6.70;3.47;;;;;;;;;;5137310;27;20031;-81
2021/07/30 09:39:14;;;;;;;11.90;4.05;;;;;;;;;;5136896;27;20030;-82
2021/07/30 09:41:39;;;;;;;9.52;3.40;;;;;;;;;;5137620;27;20129;-80
2021/07/30 09:44:07;;;;;;;7.93;4.20;;;;;;;;;;5135393;27;20058;-81
2021/07/30 09:46:39;;;;;;;14.98;3.42;;;;;;;;;;5136924;27;20483;-80
2021/07/30 09:49:04;;;;;;;8.40;3.58;;;;;;;;;;5136929;27;20023;-80
2021/07/30 09:51:30;;;;;;;8.95;3.40;;;;;;;;;;5136973;27;20489;-82
2021/07/30 09:53:58;;;;;;;9.45;3.38;;;;;;;;;;5136674;27;20551;-81
2021/07/30 09:56:27;;;;;;;8.68;3.47;;;;;;;;;;5142992;27;20473;-81
2021/07/30 09:58:57;;;;;;;8.13;3.25;;;;;;;;;;5151581;27;20408;-82
2021/07/30 10:01:24;;;;;;;6.35;2.95;;;;;;;;;;5160188;27;20546;-82
2021/07/30 10:03:52;;;;;;;9.55;3.70;;;;;;;;;;5157762;27;20102;-82
2021/07/30 10:06:20;;;;;;;13.90;5.05;;;;;;;;;;5157741;27;20042;-82
2021/07/30 10:08:46;;;;;;;14.85;3.90;;;;;;;;;;5140991;27;20052;-82
2021/07/30 10:11:12;;;;;;;12.05;4.35;;;;;;;;;;5140643;27;20030;-81
2021/07/30 10:13:50;;;;;;;9.05;3.67;;;;;;;;;;5157515;27;20034;-81
2021/07/30 10:16:18;;;;;;;12.00;3.65;;;;;;;;;;5158712;27;20019;-82
2021/07/30 10:18:49;;;;;;;9.93;3.97;;;;;;;;;;5139365;27;20027;-82
2021/07/30 10:21:20;;;;;;;9.45;3.42;;;;;;;;;;5159874;27;20023;-81
2021/07/30 10:23:52;;;;;;;9.60;4.13;;;;;;;;;;5158503;27;20022;-81
2021/07/30 10:26:24;;;;;;;12.80;3.15;;;;;;;;;;5158442;27;20030;-83
2021/07/30 10:28:50;;;;;;;14.25;3.72;;;;;;;;;;5158150;27;20029;-83
2021/07/30 10:31:15;;;;;;;14.80;3.88;;;;;;;;;;5159136;27;20023;-82
2021/07/30 10:33:46;;;;;;;9.82;4.30;;;;;;;;;;5157843;27;20050;-82
2021/07/30 10:36:31;;;;;;;12.13;3.90;;;;;;;;;;5158461;27;20405;-84
2021/07/30 10:39:18;;;;;;;10.50;3.83;;;;;;;;;;5158342;27;20018;-81
2021/07/30 10:42:10;;;;;;;6.15;3.58;;;;;;;;;;5157606;27;20031;-81
2021/07/30 10:44:56;;;;;;;9.07;3.67;;;;;;;;;;5157520;27;20054;-81
2021/07/30 10:47:22;;;;;;;10.10;3.15;;;;;;;;;;5155532;27;20027;-79
2021/07/30 10:49:48;;;;;;;5.13;2.50;;;;;;;;;;5157639;27;20019;-79
2021/07/30 10:52:27;;;;;;;9.38;3.03;;;;;;;;;;5157046;27;20038;-80
2021/07/30 10:54:53;;;;;;;11.68;3.13;;;;;;;;;;5156433;27;20023;-80
2021/07/30 10:57:49;;;;;;;11.60;4.55;;;;;;;;;;5155723;27;20023;-80
2021/07/30 11:00:15;;;;;;;14.77;3.42;;;;;;;;;;5155064;27;20038;-80
2021/07/30 11:03:05;;;;;;;7.22;3.03;;;;;;;;;;5152534;27;20029;-81
2021/07/30 11:05:31;;;;;;;11.38;3.67;;;;;;;;;;5157175;27;20030;-80
2021/07/30 11:08:01;;;;;;;8.20;3.20;;;;;;;;;;5156837;27;20023;-81
2021/07/30 11:10:27;;;;;;;8.30;3.33;;;;;;;;;;5158174;27;20045;-80
2021/07/30 11:12:57;;;;;;;9.77;3.33;;;;;;;;;;5159384;27;20084;-80
2021/07/30 11:15:31;;;;;;;7.60;3.25;;;;;;;;;;5143323;27;20031;-81
2021/07/30 11:18:00;;;;;;;8.77;3.20;;;;;;;;;;5159893;27;20041;-81
2021/07/30 11:20:31;;;;;;;7.53;3.25;;;;;;;;;;5158618;27;20386;-80
2021/07/30 11:23:02;;;;;;;13.07;3.53;;;;;;;;;;5156015;27;20113;-80
2021/07/30 11:25:28;;;;;;;9.35;3.58;;;;;;;;;;5156145;27;20504;-80
2021/07/30 11:27:58;;;;;;;6.07;2.78;;;;;;;;;;5155925;27;20026;-80
2021/07/30 11:30:28;;;;;;;8.15;3.55;;;;;;;;;;5155612;27;20030;-80
2021/07/30 11:32:55;;;;;;;12.73;3.22;;;;;;;;;;5135636;27;20035;-80
2021/07/30 11:35:21;;;;;;;7.38;3.67;;;;;;;;;;5134503;28;20054;-80
2021/07/30 11:37:57;;;;;;;10.80;3.30;;;;;;;;;;5136627;27;20095;-81
2021/07/30 11:40:24;;;;;;;7.90;3.70;;;;;;;;;;5134960;27;20027;-82
2021/07/30 11:42:50;;;;;;;10.68;3.72;;;;;;;;;;5134542;28;20371;-78
2021/07/30 11:45:20;;;;;;;12.35;3.80;;;;;;;;;;5134462;28;20023;-80
2021/07/30 11:47:45;;;;;;;7.90;4.60;;;;;;;;;;5116114;28;20025;-79
2021/07/30 11:50:16;;;;;;;10.48;3.88;;;;;;;;;;5139827;27;20381;-79
2021/07/30 11:52:42;;;;;;;8.68;3.50;;;;;;;;;;5155183;27;20054;-79
2021/07/30 11:55:19;;;;;;;9.38;3.83;;;;;;;;;;5154968;27;20030;-79
2021/07/30 11:57:55;;;;;;;26.13;5.85;;;;;;;;;;5136538;27;20363;-80
2021/07/30 12:00:29;;;;;;;10.15;3.22;;;;;;;;;;5155070;27;20030;-81
2021/07/30 12:02:57;;;;;;;10.68;4.57;;;;;;;;;;5155128;27;20026;-80
2021/07/30 12:05:36;;;;;;;8.80;4.40;;;;;;;;;;5120183;27;20019;-80
2021/07/30 12:08:02;;;;;;;13.27;4.68;;;;;;;;;;5158389;27;20022;-80
2021/07/30 12:10:29;;;;;;;10.52;3.85;;;;;;;;;;5159121;27;20019;-79
2021/07/30 12:12:58;;;;;;;8.57;3.58;;;;;;;;;;5156899;27;20474;-80
2021/07/30 12:15:25;;;;;;;10.68;4.65;;;;;;;;;;5156908;27;20492;-81
2021/07/30 12:18:00;;;;;;;8.88;3.45;;;;;;;;;;5164338;27;20039;-80
2021/07/30 12:20:35;;;;;;;7.57;4.18;;;;;;;;;;5160792;27;20023;-80
2021/07/30 12:23:05;;;;;;;15.60;4.90;;;;;;;;;;5157894;27;20033;-81
2021/07/30 12:25:56;;;;;;;11.82;3.65;;;;;;;;;;5166641;27;20023;-81
2021/07/30 12:28:26;;;;;;;7.30;3.47;;;;;;;;;;5153118;27;20027;-80
2021/07/30 12:30:56;;;;;;;8.98;3.72;;;;;;;;;;5156320;27;20022;-81
2021/07/30 12:33:28;;;;;;;7.95;4.03;;;;;;;;;;5163849;27;20026;-82
2021/07/30 12:36:30;;;;;;;9.75;4.63;;;;;;;;;;5164714;27;20023;-80
2021/07/30 12:39:01;;;;;;;7.85;4.30;;;;;;;;;;5167996;27;20029;-79
2021/07/30 12:41:30;;;;;;;10.65;4.97;;;;;;;;;;5143902;27;20026;-80
2021/07/30 12:44:16;;;;;;;14.30;4.35;;;;;;;;;;5174860;27;20019;-80
2021/07/30 12:46:50;;;;;;;11.05;4.82;;;;;;;;;;5174752;27;20077;-82
2021/07/30 12:49:33;;;;;;;11.10;5.70;;;;;;;;;;5150316;27;20034;-80
2021/07/30 12:51:59;;;;;;;15.65;5.35;;;;;;;;;;5160327;27;20457;-81
2021/07/30 12:54:35;;;;;;;12.20;4.88;;;;;;;;;;5160207;27;20054;-79
2021/07/30 12:57:03;;;;;;;9.60;6.47;;;;;;;;;;5159659;27;20015;-79
2021/07/30 13:00:03;;;;;;;10.38;4.32;;;;;;;;;;5159337;27;20023;-81
2021/07/30 13:02:37;;;;;;;10.82;7.00;;;;;;;;;;5163069;27;20058;-79
2021/07/30 13:05:03;;;;;;;14.30;6.00;;;;;;;;;;5162295;27;20064;-80
2021/07/30 13:07:29;;;;;;;9.65;6.32;;;;;;;;;;5160501;27;20022;-80
2021/07/30 13:09:55;;;;;;;11.13;6.45;;;;;;;;;;5158236;27;20078;-80
2021/07/30 13:12:24;;;;;;;10.60;6.03;;;;;;;;;;5158576;27;20030;-80
2021/07/30 13:14:50;;;;;;;9.18;7.18;;;;;;;;;;5159046;27;20505;-80
2021/07/30 13:17:15;;;;;;;8.10;4.28;;;;;;;;;;5140062;27;20051;-81
2021/07/30 13:19:41;;;;;;;8.20;3.47;;;;;;;;;;5157779;27;20106;-81
2021/07/30 13:22:11;;;;;;;13.52;4.88;;;;;;;;;;5163327;27;20098;-80
2021/07/30 13:24:37;;;;;;;9.30;5.15;;;;;;;;;;5161257;27;20097;-80
2021/07/30 13:27:03;;;;;;;10.93;3.50;;;;;;;;;;5160341;27;20083;-81
2021/07/30 13:29:28;;;;;;;10.07;3.40;;;;;;;;;;5159796;27;20018;-81
2021/07/30 13:31:55;;;;;;;11.15;4.03;;;;;;;;;;5160718;27;20026;-80
2021/07/30 13:34:21;;;;;;;11.10;4.88;;;;;;;;;;5159438;27;20022;-81
2021/07/30 13:36:46;;;;;;;9.02;4.88;;;;;;;;;;5159000;27;20035;-82
2021/07/30 13:39:12;;;;;;;7.95;4.93;;;;;;;;;;5158948;27;20031;-81
2021/07/30 13:41:43;;;;;;;13.80;4.88;;;;;;;;;;5161301;27;20019;-81
2021/07/30 13:44:11;;;;;;;11.45;4.40;;;;;;;;;;5162837;27;20051;-81
2021/07/30 13:46:37;;;;;;;9.65;5.72;;;;;;;;;;5160179;27;20089;-80
2021/07/30 13:49:03;;;;;;;11.43;4.60;;;;;;;;;;5160212;27;20046;-80
2021/07/30 13:51:29;;;;;;;12.57;7.30;;;;;;;;;;5158055;27;20355;-80
2021/07/30 13:53:55;;;;;;;8.32;5.10;;;;;;;;;;5158634;27;20029;-81
2021/07/30 13:56:20;;;;;;;12.35;5.25;;;;;;;;;;5158426;27;20069;-80
2021/07/30 13:58:46;;;;;;;10.85;5.30;;;;;;;;;;5156815;27;20023;-81
2021/07/30 14:01:17;;;;;;;11.13;5.20;;;;;;;;;;5157168;27;20140;-81
2021/07/30 14:03:43;;;;;;;9.25;4.43;;;;;;;;;;5159248;27;20058;-80
2021/07/30 14:06:09;;;;;;;11.85;5.28;;;;;;;;;;5159911;27;20021;-80
2021/07/30 14:08:35;;;;;;;7.53;4.53;;;;;;;;;;5159215;27;20018;-80
2021/07/30 14:11:00;;;;;;;13.50;5.32;;;;;;;;;;5157169;27;20031;-80
2021/07/30 14:13:26;;;;;;;9.32;5.20;;;;;;;;;;5143628;27;20031;-81
2021/07/30 14:15:54;;;;;;;10.95;6.18;;;;;;;;;;5168765;27;20022;-81
2021/07/30 14:18:20;;;;;;;7.80;6.95;;;;;;;;;;5171519;27;20072;-81
2021/07/30 14:20:45;;;;;;;9.05;4.85;;;;;;;;;;5162764;27;20034;-80
2021/07/30 14:23:11;;;;;;;7.38;4.35;;;;;;;;;;5160006;27;20023;-81
2021/07/30 14:25:37;;;;;;;10.45;4.75;;;;;;;;;;5157794;27;20098;-81
2021/07/30 14:28:04;;;;;;;8.73;4.50;;;;;;;;;;5157734;27;20143;-82
2021/07/30 14:30:30;;;;;;;8.90;4.15;;;;;;;;;;5161828;27;20102;-81
2021/07/30 14:32:55;;;;;;;9.15;5.80;;;;;;;;;;5160278;27;20027;-82
2021/07/30 14:35:21;;;;;;;10.25;4.60;;;;;;;;;;5159998;27;20026;-81
2021/07/30 14:37:47;;;;;;;8.15;4.63;;;;;;;;;;5139911;27;20015;-80
2021/07/30 14:40:12;;;;;;;10.63;5.68;;;;;;;;;;5158744;27;20038;-79
2021/07/30 14:42:38;;;;;;;11.52;4.88;;;;;;;;;;5157388;27;20062;-80
2021/07/30 14:45:07;;;;;;;9.60;5.30;;;;;;;;;;5157981;27;20019;-81
2021/07/30 14:47:36;;;;;;;9.40;5.60;;;;;;;;;;5155966;27;20030;-81
2021/07/30 14:50:02;;;;;;;;;;;;;;;;;;5156302;27;20466;-80